Terminal Aerodrome Forecast
Issued by NWS Wilmington, NC

Home | Current Version | Previous Version | Text Only | Print | Product List | Glossary On
Versions: 1 2 3 4 5 6 7 8 9 10 11 12 13 14
923
FTUS42 KILM 211120
TAFFLO
TAF
KFLO 211120Z 2112/2212 00000KT P6SM SKC
     FM211500 08007KT P6SM SKC
     FM220200 VRB03KT P6SM SKC
      TEMPO 2209/2211 4SM BR=

USA.gov is the U.S. government's official web portal to all federal, state and local government web resources and services.